Time;durP1;ratioP1;P1;durP2;ratioP2;P2;SDS_P1;SDS_P2;PMS_P1;PMS_P2;Temp;Humidity;BMP_temperature;BMP_pressure;BME280_temperature;BME280_humidity;BME280_pressure;Samples;Min_cycle;Max_cycle;Signal;HPM_P1;HPM_P2
2022/04/26 03:37:29;;;;;;;18.27;11.73;;;;;;;13.82;68.66;98957.28;4750047;30;20077;-77
2022/04/26 03:39:55;;;;;;;15.13;11.55;;;;;;;13.92;68.69;98960.44;4748469;30;20052;-76
2022/04/26 03:42:21;;;;;;;17.25;11.15;;;;;;;14.01;68.49;98961.91;4748383;30;20040;-77
2022/04/26 03:44:47;;;;;;;18.40;11.18;;;;;;;13.92;67.96;98946.53;4737924;30;20183;-78
2022/04/26 03:47:14;;;;;;;20.40;11.77;;;;;;;13.83;67.88;98921.56;4754007;30;20648;-80
2022/04/26 03:49:40;;;;;;;18.33;11.52;;;;;;;14.08;67.52;98962.53;4736843;30;20056;-78
2022/04/26 03:52:09;;;;;;;16.42;11.38;;;;;;;14.08;67.29;98960.75;4741618;30;20575;-78
2022/04/26 03:54:35;;;;;;;21.55;11.55;;;;;;;13.98;67.36;98935.84;4737216;30;20048;-77
2022/04/26 03:57:02;;;;;;;17.20;10.50;;;;;;;14.14;67.27;98955.28;4743859;30;20055;-78
2022/04/26 03:59:28;;;;;;;17.08;10.75;;;;;;;14.41;67.09;98970.88;4737221;30;20055;-79
2022/04/26 04:01:54;;;;;;;19.85;10.70;;;;;;;14.40;66.90;98937.75;4748677;30;20052;-76
2022/04/26 04:04:20;;;;;;;15.25;10.57;;;;;;;14.38;66.47;98923.00;4759154;30;20055;-77
2022/04/26 04:06:46;;;;;;;18.17;11.63;;;;;;;14.73;66.52;98975.81;4736096;30;20433;-77
2022/04/26 04:09:13;;;;;;;17.50;11.07;;;;;;;14.74;66.23;98964.44;4751073;30;20060;-76
2022/04/26 04:11:39;;;;;;;17.95;11.32;;;;;;;14.82;65.98;98974.59;4747310;30;20128;-76
2022/04/26 04:14:04;;;;;;;17.98;11.30;;;;;;;14.80;65.90;98965.94;4748319;30;20505;-75
2022/04/26 04:16:31;;;;;;;15.52;11.02;;;;;;;14.79;65.71;98959.84;4748961;30;20066;-81
2022/04/26 04:21:42;;;;;;;18.55;12.27;;;;;;;14.95;65.04;98965.31;4753048;30;20036;-76
2022/04/26 04:24:08;;;;;;;18.58;12.70;;;;;;;14.86;64.82;98937.75;4738380;30;20112;-79
2022/04/26 04:26:34;;;;;;;16.52;12.00;;;;;;;15.02;64.51;98951.06;4753432;30;20908;-78
2022/04/26 04:29:00;;;;;;;20.10;11.98;;;;;;;15.04;64.44;98951.88;4741621;30;20150;-79
2022/04/26 04:31:26;;;;;;;20.92;12.60;;;;;;;15.09;64.20;98956.91;4764652;30;20162;-77
2022/04/26 04:33:52;;;;;;;23.90;12.23;;;;;;;15.15;64.14;98961.03;4769670;30;20123;-77
2022/04/26 04:36:18;;;;;;;21.63;12.93;;;;;;;15.25;64.08;98974.59;4767351;30;20098;-77
2022/04/26 04:38:43;;;;;;;26.33;13.43;;;;;;;15.41;63.88;98966.97;4756498;30;20192;-76
2022/04/26 04:41:10;;;;;;;21.67;13.27;;;;;;;15.52;63.82;98965.59;4752702;30;20043;-77
2022/04/26 04:43:36;;;;;;;20.52;12.80;;;;;;;15.82;63.59;98961.72;4738138;30;20045;-78
2022/04/26 04:46:02;;;;;;;21.85;13.00;;;;;;;16.31;63.48;98970.97;4726638;30;20059;-79
2022/04/26 04:48:28;;;;;;;21.13;12.88;;;;;;;16.80;63.00;98971.31;4752498;30;20881;-78
2022/04/26 04:50:54;;;;;;;22.00;12.23;;;;;;;17.15;62.10;98957.41;4737996;30;20425;-78
2022/04/26 04:53:21;;;;;;;23.95;14.80;;;;;;;17.48;60.98;98959.25;4726959;30;20071;-76
2022/04/26 04:55:47;;;;;;;24.67;14.35;;;;;;;17.42;59.79;98957.81;4751612;30;20086;-78
2022/04/26 04:58:13;;;;;;;25.10;15.05;;;;;;;17.45;60.09;98962.91;4752589;30;20517;-77
2022/04/26 05:00:39;;;;;;;23.95;15.25;;;;;;;17.57;59.36;98953.56;4753053;30;20115;-76
2022/04/26 05:03:05;;;;;;;22.02;13.93;;;;;;;17.53;58.90;98953.78;4752849;30;20134;-77
2022/04/26 05:05:31;;;;;;;20.65;12.85;;;;;;;17.63;58.91;98959.44;4753510;30;20063;-76
2022/04/26 05:07:58;;;;;;;22.58;13.52;;;;;;;17.95;58.62;98943.72;4754152;30;20119;-75
2022/04/26 05:10:25;;;;;;;22.02;12.70;;;;;;;18.41;57.80;98945.72;4738653;30;20047;-77
2022/04/26 05:12:53;;;;;;;16.20;11.65;;;;;;;18.77;57.63;98955.13;4721738;30;20515;-77
2022/04/26 05:15:19;;;;;;;16.23;11.40;;;;;;;19.08;56.73;98948.16;4737494;30;20067;-76
2022/04/26 05:17:48;;;;;;;17.67;11.77;;;;;;;19.23;55.45;98933.19;4752598;30;20070;-78
2022/04/26 05:20:14;;;;;;;15.15;11.10;;;;;;;19.52;54.45;98925.38;4735552;30;20048;-77
2022/04/26 05:25:28;;;;;;;16.08;11.10;;;;;;;22.81;52.62;98927.59;4745155;30;20062;-78
2022/04/26 05:28:03;;;;;;;18.17;12.40;;;;;;;24.46;48.46;98915.91;4741354;30;20051;-79
2022/04/26 05:30:32;;;;;;;21.40;15.57;;;;;;;25.73;45.77;98915.28;4726656;30;20179;-77
2022/04/26 05:33:07;;;;;;;25.45;17.65;;;;;;;25.39;43.73;98922.47;4740162;30;20040;-77
2022/04/26 05:35:34;;;;;;;24.33;17.92;;;;;;;26.31;42.31;98918.19;4756621;30;20059;-77
2022/04/26 05:38:00;;;;;;;26.08;18.60;;;;;;;26.82;40.88;98902.16;4748113;30;20455;-77
2022/04/26 05:40:26;;;;;;;27.98;20.20;;;;;;;26.28;39.13;98905.13;4739630;30;20086;-77
2022/04/26 05:42:52;;;;;;;27.75;19.30;;;;;;;27.50;38.87;98903.94;4742022;30;20048;-79
2022/04/26 05:45:18;;;;;;;28.75;20.05;;;;;;;29.13;36.89;98901.63;4739453;30;20063;-75
2022/04/26 05:47:45;;;;;;;32.65;20.30;;;;;;;30.56;34.43;98899.56;4762157;30;20044;-77
2022/04/26 05:50:12;;;;;;;24.83;17.75;;;;;;;31.83;32.55;98892.00;4741246;30;20088;-77
2022/04/26 05:52:39;;;;;;;21.88;15.52;;;;;;;33.09;30.59;98896.53;4769770;30;20333;-79
2022/04/26 05:55:11;;;;;;;24.35;17.23;;;;;;;33.42;29.55;98884.63;4738998;30;20044;-75
2022/04/26 05:57:38;;;;;;;27.45;17.73;;;;;;;33.15;28.92;98900.34;4746817;30;20055;-78
2022/04/26 06:00:07;;;;;;;27.73;22.05;;;;;;;33.87;28.31;98901.66;4744187;30;20048;-80
2022/04/26 06:02:42;;;;;;;23.75;15.63;;;;;;;34.49;27.07;98901.38;4735962;30;20044;-79
2022/04/26 06:05:10;;;;;;;21.42;16.13;;;;;;;34.61;25.98;98907.13;4728073;30;20052;-78
2022/04/26 06:07:36;;;;;;;26.73;18.08;;;;;;;34.73;25.38;98891.25;4743387;30;20031;-77
2022/04/26 06:10:03;;;;;;;27.67;16.52;;;;;;;34.63;25.41;98895.13;4764042;30;20147;-78
2022/04/26 06:12:29;;;;;;;20.38;16.33;;;;;;;35.65;24.07;98888.69;4749384;30;20048;-79
2022/04/26 06:14:56;;;;;;;21.73;15.10;;;;;;;36.66;23.08;98897.25;4738642;30;20533;-80
2022/04/26 06:17:22;;;;;;;19.27;15.40;;;;;;;37.39;22.24;98899.19;4725383;30;20207;-78
2022/04/26 06:19:49;;;;;;;19.63;13.85;;;;;;;37.66;21.49;98889.13;4749489;30;20076;-79
2022/04/26 06:22:15;;;;;;;15.30;12.95;;;;;;;38.23;21.02;98898.56;4736008;30;20046;-79
2022/04/26 06:24:41;;;;;;;12.93;9.77;;;;;;;39.22;20.18;98894.59;4724921;30;20365;-75
2022/04/26 06:27:07;;;;;;;13.32;10.68;;;;;;;39.95;18.53;98894.91;4735347;30;20094;-78
2022/04/26 06:29:33;;;;;;;10.18;8.95;;;;;;;40.84;18.15;98905.22;4745995;30;20083;-80
2022/04/26 06:32:03;;;;;;;9.18;6.95;;;;;;;41.51;17.55;98889.66;4750153;30;20040;-77
2022/04/26 06:34:31;;;;;;;11.45;8.40;;;;;;;41.86;17.22;98910.63;4735811;30;20078;-82
2022/04/26 06:36:57;;;;;;;9.00;8.10;;;;;;;41.34;17.09;98895.84;4727274;30;20044;-81
2022/04/26 06:39:22;;;;;;;7.32;6.53;;;;;;;40.94;16.84;98905.50;4748626;30;20048;-78
2022/04/26 06:41:48;;;;;;;11.95;8.98;;;;;;;39.00;17.52;98908.56;4747884;30;20100;-81
2022/04/26 06:44:14;;;;;;;9.02;6.93;;;;;;;37.57;18.64;98914.81;4742845;30;20198;-80
2022/04/26 06:46:41;;;;;;;19.00;12.88;;;;;;;35.68;19.44;98913.47;4743552;30;20044;-78
2022/04/26 06:49:07;;;;;;;13.20;9.82;;;;;;;34.30;20.76;98925.25;4740420;30;20132;-79
2022/04/26 06:51:37;;;;;;;8.90;5.82;;;;;;;34.45;21.05;98919.84;4739681;30;20044;-79
2022/04/26 06:54:04;;;;;;;5.85;5.22;;;;;;;35.54;19.53;98914.41;4753121;30;20057;-79
2022/04/26 06:56:31;;;;;;;6.85;6.15;;;;;;;36.11;19.22;98915.19;4734040;30;20052;-82
2022/04/26 06:58:57;;;;;;;6.47;5.68;;;;;;;35.29;19.53;98907.56;4743945;30;20401;-78
2022/04/26 07:01:22;;;;;;;7.03;5.88;;;;;;;33.26;21.25;98924.13;4738038;30;20058;-78
2022/04/26 07:03:48;;;;;;;7.95;5.80;;;;;;;32.08;22.52;98926.88;4746883;30;20134;-76
2022/04/26 07:06:14;;;;;;;11.13;6.07;;;;;;;33.54;21.80;98909.25;4727551;30;20052;-78
2022/04/26 07:08:41;;;;;;;8.32;6.00;;;;;;;34.66;20.80;98913.63;4748518;30;20052;-78
2022/04/26 07:11:07;;;;;;;6.85;5.10;;;;;;;35.73;19.37;98908.28;4752402;30;20060;-78
2022/04/26 07:13:33;;;;;;;7.10;5.55;;;;;;;36.45;18.51;98915.31;4747591;30;20467;-77
2022/04/26 07:16:00;;;;;;;6.88;5.25;;;;;;;36.08;18.84;98906.63;4737590;30;20448;-78
2022/04/26 07:18:26;;;;;;;8.63;5.78;;;;;;;34.81;19.27;98918.13;4748914;30;20117;-79
2022/04/26 07:20:52;;;;;;;7.53;5.50;;;;;;;33.27;20.36;98933.06;4755404;30;20047;-78
2022/04/26 07:23:19;;;;;;;12.57;6.00;;;;;;;31.77;22.10;98938.38;4739238;30;20078;-81
2022/04/26 07:25:46;;;;;;;12.65;5.82;;;;;;;31.02;22.39;98912.53;4755197;30;20039;-79
2022/04/26 07:28:12;;;;;;;12.50;6.43;;;;;;;31.35;23.35;98929.50;4739817;30;20463;-79
2022/04/26 07:30:39;;;;;;;8.20;4.97;;;;;;;32.55;22.21;98930.53;4755170;30;20048;-79
2022/04/26 07:35:53;;;;;;;10.50;4.70;;;;;;;33.80;21.08;98898.84;4755698;30;20079;-79
2022/04/26 07:38:20;;;;;;;5.65;4.32;;;;;;;33.83;21.01;98902.19;4748437;30;20386;-77
2022/04/26 07:40:46;;;;;;;7.30;4.50;;;;;;;32.93;21.04;98918.19;4732174;30;20058;-77
2022/04/26 07:43:13;;;;;;;10.13;4.25;;;;;;;31.80;21.90;98895.03;4759960;30;20115;-79
2022/04/26 07:45:40;;;;;;;9.20;4.95;;;;;;;31.31;22.73;98905.84;4733635;30;20047;-76
2022/04/26 07:48:08;;;;;;;18.15;5.90;;;;;;;32.21;22.33;98907.47;4774916;30;20070;-79
2022/04/26 07:50:35;;;;;;;16.65;5.68;;;;;;;31.80;22.63;98910.31;4729495;30;20043;-79
2022/04/26 07:53:03;;;;;;;6.53;5.55;;;;;;;30.97;23.08;98914.91;4756761;30;20509;-77
2022/04/26 07:55:29;;;;;;;6.43;5.10;;;;;;;29.84;23.92;98906.97;4770413;30;20421;-78
2022/04/26 07:57:59;;;;;;;6.55;5.40;;;;;;;29.85;24.96;98911.34;4752896;30;20497;-77
2022/04/26 08:00:28;;;;;;;10.20;6.13;;;;;;;29.46;25.00;98909.94;4738018;30;20138;-77
2022/04/26 08:02:55;;;;;;;13.98;5.82;;;;;;;28.54;26.23;98914.63;4737340;30;20047;-77
2022/04/26 08:05:21;;;;;;;22.67;6.35;;;;;;;27.58;26.72;98932.59;4770321;30;20420;-79
2022/04/26 08:07:58;;;;;;;14.82;6.18;;;;;;;26.51;28.13;98896.88;4738229;30;20575;-77
2022/04/26 08:10:40;;;;;;;21.77;6.18;;;;;;;25.86;28.12;98908.75;4724545;30;20043;-77
2022/04/26 08:13:06;;;;;;;11.25;5.40;;;;;;;25.26;29.39;98935.13;4737165;30;20358;-76
2022/04/26 08:16:19;;;;;;;12.75;5.68;;;;;;;24.54;30.69;98881.59;4744734;30;20050;-79
2022/04/26 08:19:12;;;;;;;8.23;5.97;;;;;;;23.20;31.96;98792.06;5245062;24;20072;-79
2022/04/26 08:21:39;;;;;;;9.73;5.97;;;;;;;23.49;33.10;98864.13;4715693;30;20045;-79
2022/04/26 08:29:34;;;;;;;8.52;5.90;;;;;;;23.05;34.18;98930.22;4743710;30;20044;-76
2022/04/26 08:32:00;;;;;;;11.27;6.55;;;;;;;22.39;34.92;98941.19;4725951;30;20078;-79
2022/04/26 08:34:26;;;;;;;6.88;5.75;;;;;;;21.88;36.24;98919.13;4730830;30;20433;-78
2022/04/26 08:36:52;;;;;;;8.95;5.80;;;;;;;21.62;36.43;98929.72;4745119;30;20044;-79
2022/04/26 08:39:20;;;;;;;8.25;5.43;;;;;;;21.50;36.98;98927.88;4721077;30;20044;-80
2022/04/26 08:41:46;;;;;;;9.77;5.45;;;;;;;21.46;36.57;98942.25;4730287;30;20135;-76
2022/04/26 08:44:12;;;;;;;8.27;5.13;;;;;;;21.37;36.14;98935.81;4744976;30;20039;-78
2022/04/26 08:52:09;;;;;;;11.77;5.50;;;;;;;21.47;36.29;98913.03;4728788;30;20155;-79
2022/04/26 08:54:35;;;;;;;12.02;5.53;;;;;;;21.63;35.90;98920.81;4745533;30;20086;-76
2022/04/26 08:57:02;;;;;;;18.13;5.82;;;;;;;21.65;36.28;98932.16;4732506;30;20063;-78
2022/04/26 08:59:28;;;;;;;12.05;5.88;;;;;;;21.78;35.92;98923.34;4730869;30;20580;-77
2022/04/26 09:02:27;;;;;;;10.55;5.10;;;;;;;22.05;36.05;98928.53;4726343;30;20517;-77
2022/04/26 09:05:00;;;;;;;12.75;6.88;;;;;;;22.02;35.67;98912.84;4719617;30;20055;-77
2022/04/26 09:07:31;;;;;;;10.70;5.25;;;;;;;21.94;36.13;98928.44;4744159;30;20059;-77
2022/04/26 09:10:05;;;;;;;11.43;6.25;;;;;;;21.74;35.97;98928.00;4743229;30;20140;-78
2022/04/26 09:12:30;;;;;;;12.85;5.18;;;;;;;21.79;36.65;98925.91;4733605;30;20057;-77
2022/04/26 09:15:14;;;;;;;10.07;5.60;;;;;;;22.01;36.69;98924.41;4729199;30;20213;-77
2022/04/26 09:17:41;;;;;;;9.60;5.85;;;;;;;22.14;36.12;98927.03;4730584;30;20765;-80
2022/04/26 09:20:10;;;;;;;10.73;5.32;;;;;;;22.17;35.56;98902.13;4733567;30;21465;-80
2022/04/26 09:22:39;;;;;;;6.90;5.18;;;;;;;22.30;35.34;98932.06;4735023;30;20052;-77
2022/04/26 09:25:07;;;;;;;13.85;5.97;;;;;;;22.09;36.17;98918.56;4732956;30;20040;-77
2022/04/26 09:27:38;;;;;;;11.75;5.82;;;;;;;22.34;35.96;98930.06;4719316;30;20141;-79
2022/04/26 09:30:10;;;;;;;16.05;5.45;;;;;;;22.36;36.17;98928.16;4711945;30;20041;-81
2022/04/26 09:32:47;;;;;;;6.38;4.40;;;;;;;22.26;35.51;98933.25;4729083;30;20053;-80
2022/04/26 09:35:21;;;;;;;11.50;5.43;;;;;;;22.16;35.75;98925.13;4717635;30;20126;-79
2022/04/26 09:37:48;;;;;;;9.57;5.85;;;;;;;21.98;35.43;98898.13;4728098;30;20613;-79
2022/04/26 09:40:14;;;;;;;8.27;5.22;;;;;;;22.10;35.35;98918.44;4725712;30;20049;-80
2022/04/26 09:42:40;;;;;;;11.90;5.85;;;;;;;22.11;35.44;98914.84;4727693;30;20103;-77
2022/04/26 09:45:08;;;;;;;27.40;20.77;;;;;;;22.10;35.73;98914.94;4727162;30;20049;-81
2022/04/26 09:47:39;;;;;;;21.63;13.52;;;;;;;22.28;35.64;98915.44;4727871;30;20518;-78
2022/04/26 09:50:09;;;;;;;31.45;18.88;;;;;;;22.64;35.57;98923.50;4714281;30;20531;-79
2022/04/26 09:52:36;;;;;;;10.80;6.68;;;;;;;22.81;35.21;98909.88;4725876;30;20045;-78
2022/04/26 09:55:07;;;;;;;16.40;4.93;;;;;;;22.71;35.18;98928.28;4710034;30;20048;-79
2022/04/26 09:57:35;;;;;;;8.93;5.03;;;;;;;22.77;35.10;98921.66;4727032;30;20048;-79
2022/04/26 10:00:10;;;;;;;13.30;4.30;;;;;;;22.77;34.30;98920.81;4697565;30;20411;-75
2022/04/26 10:02:40;;;;;;;13.82;4.90;;;;;;;22.52;34.42;98907.56;4724823;30;20508;-78
2022/04/26 10:05:07;;;;;;;13.07;6.53;;;;;;;22.54;34.10;98929.50;4727181;30;20079;-80
2022/04/26 10:07:43;;;;;;;7.40;3.30;;;;;;;22.31;33.61;98927.63;4726827;30;20056;-80
2022/04/26 10:10:10;;;;;;;11.30;3.78;;;;;;;22.13;34.04;98927.97;4715629;30;20068;-78
2022/04/26 10:12:37;;;;;;;5.53;3.58;;;;;;;21.82;33.90;98930.13;4714759;30;20061;-77
2022/04/26 10:15:05;;;;;;;9.15;3.72;;;;;;;21.70;33.83;98936.28;4719224;30;20734;-78
2022/04/26 10:17:32;;;;;;;7.63;2.70;;;;;;;21.53;34.39;98930.28;4716803;30;20109;-77
2022/04/26 10:20:03;;;;;;;6.20;3.13;;;;;;;21.18;34.22;98897.38;4726907;30;20482;-79
2022/04/26 10:22:57;;;;;;;11.95;3.22;;;;;;;21.22;34.23;98927.94;4719094;30;20512;-79
2022/04/26 10:25:26;;;;;;;13.80;4.13;;;;;;;21.30;33.86;98924.75;4728918;30;20063;-78
2022/04/26 10:28:23;;;;;;;16.25;3.83;;;;;;;21.39;34.16;98939.19;4712858;30;20064;-78
2022/04/26 10:30:50;;;;;;;4.82;3.17;;;;;;;21.52;34.21;98928.59;4713759;30;20136;-76
2022/04/26 10:33:37;;;;;;;9.73;3.50;;;;;;;21.55;33.74;98931.03;4728968;30;20063;-78
2022/04/26 10:36:29;;;;;;;12.85;4.00;;;;;;;21.27;34.40;98942.66;4716753;30;20087;-79
2022/04/26 10:39:13;;;;;;;6.13;2.97;;;;;;;21.18;34.61;98936.19;4703344;30;20430;-77
2022/04/26 10:41:43;;;;;;;13.27;8.48;;;;;;;21.37;34.49;98941.94;4728755;30;20080;-77
2022/04/26 10:44:13;;;;;;;13.55;6.05;;;;;;;21.57;34.03;98931.78;4717473;30;20049;-80
2022/04/26 10:46:40;;;;;;;5.90;3.15;;;;;;;21.57;33.83;98926.50;4709146;30;20089;-76
2022/04/26 10:49:25;;;;;;;14.18;4.32;;;;;;;21.51;34.44;98927.75;4729528;30;20557;-76
2022/04/26 10:51:55;;;;;;;5.68;3.60;;;;;;;21.66;34.09;98931.19;4740990;30;20053;-77
2022/04/26 10:54:51;;;;;;;7.70;3.70;;;;;;;21.74;34.00;98933.31;4730987;30;20056;-79
2022/04/26 10:57:27;;;;;;;7.93;4.03;;;;;;;21.45;34.43;98938.75;4712326;30;20055;-78
2022/04/26 11:00:11;;;;;;;10.20;4.35;;;;;;;21.36;34.52;98934.09;4738788;30;20053;-78
2022/04/26 11:02:48;;;;;;;17.40;4.85;;;;;;;21.24;34.96;98925.19;4744968;30;20049;-77
2022/04/26 11:05:25;;;;;;;12.02;4.20;;;;;;;21.08;34.96;98925.38;4710613;30;20079;-76
2022/04/26 11:07:52;;;;;;;7.15;3.38;;;;;;;20.73;35.13;98889.69;4744493;30;20068;-76
2022/04/26 11:10:24;;;;;;;10.88;3.92;;;;;;;20.76;35.13;98931.81;4729358;30;20111;-76
2022/04/26 11:12:55;;;;;;;7.40;3.15;;;;;;;20.47;35.08;98937.16;4741552;30;20045;-78
2022/04/26 11:15:23;;;;;;;10.70;3.35;;;;;;;20.29;35.25;98925.09;4724325;30;20056;-78
2022/04/26 11:17:51;;;;;;;7.28;3.22;;;;;;;20.20;35.57;98937.09;4743384;30;20048;-80
2022/04/26 11:20:20;;;;;;;5.68;3.58;;;;;;;20.06;35.65;98930.03;4741854;30;20080;-80
2022/04/26 11:22:55;;;;;;;9.10;3.40;;;;;;;19.97;35.50;98922.72;4732442;30;20065;-79
2022/04/26 11:28:10;;;;;;;5.90;3.33;;;;;;;19.92;35.41;98936.16;4734401;30;20618;-78
2022/04/26 11:30:43;;;;;;;8.02;2.70;;;;;;;20.13;35.65;98948.97;4748405;30;20049;-80
2022/04/26 11:33:11;;;;;;;4.90;3.70;;;;;;;20.27;35.70;98956.91;4732359;30;20060;-80
2022/04/26 11:35:39;;;;;;;9.63;3.30;;;;;;;20.27;35.50;98925.22;4738206;30;20076;-80
2022/04/26 11:38:10;;;;;;;8.52;3.30;;;;;;;20.53;35.20;98945.63;4740818;30;20040;-79
2022/04/26 11:40:41;;;;;;;8.00;3.38;;;;;;;20.57;35.15;98939.22;4734426;30;20091;-77
2022/04/26 11:43:14;;;;;;;9.90;3.85;;;;;;;20.55;35.24;98931.38;4730518;30;20102;-78
2022/04/26 11:45:43;;;;;;;9.77;3.25;;;;;;;20.57;35.55;98937.41;4749731;30;20049;-80
2022/04/26 11:48:15;;;;;;;8.32;3.63;;;;;;;20.68;35.21;98926.13;4749337;30;20059;-79
2022/04/26 11:50:42;;;;;;;;;;;;;;;20.75;34.66;98926.59;4749442;30;20059;-80
2022/04/26 11:53:09;;;;;;;6.90;3.63;;;;;;;20.82;35.34;98919.16;4722280;30;19956;-78
2022/04/26 11:55:37;;;;;;;6.10;3.65;;;;;;;20.95;35.30;98924.50;4722380;30;20044;-80
2022/04/26 11:58:13;;;;;;;8.93;5.68;;;;;;;21.22;34.95;98922.63;4736200;30;20422;-79
2022/04/26 12:01:02;;;;;;;5.53;2.97;;;;;;;21.44;35.16;98909.75;4710024;30;20051;-80
2022/04/26 12:03:33;;;;;;;5.88;2.75;;;;;;;21.46;34.30;98907.88;4730723;30;20044;-81
2022/04/26 12:06:04;;;;;;;10.73;3.60;;;;;;;21.32;34.40;98901.69;4741271;30;20075;-80
2022/04/26 12:08:36;;;;;;;7.93;3.30;;;;;;;21.08;34.54;98898.91;4756284;30;20040;-80
2022/04/26 12:11:36;;;;;;;4.43;3.42;;;;;;;20.91;34.54;98908.81;4759304;30;20139;-80
2022/04/26 12:14:08;;;;;;;6.45;2.80;;;;;;;20.83;34.78;98910.28;4697815;30;20061;-79
2022/04/26 12:16:56;;;;;;;8.00;3.20;;;;;;;20.65;34.89;98918.41;4736392;30;20052;-79
2022/04/26 12:19:41;;;;;;;7.25;3.30;;;;;;;20.42;35.07;98896.13;4754912;30;20951;-80
2022/04/26 12:22:13;;;;;;;11.68;3.13;;;;;;;20.54;35.47;98899.78;4725839;30;20060;-77
2022/04/26 12:24:53;;;;;;;8.85;5.45;;;;;;;20.81;35.51;98904.25;4722599;30;20044;-79
2022/04/26 12:27:27;;;;;;;6.57;3.50;;;;;;;21.03;35.61;98907.16;4732330;30;20059;-79
2022/04/26 12:29:53;;;;;;;9.18;6.90;;;;;;;20.97;35.48;98883.78;4741736;30;20149;-79
2022/04/26 12:32:21;;;;;;;10.13;6.85;;;;;;;21.02;35.63;98876.38;4727779;30;20044;-80
2022/04/26 12:34:50;;;;;;;6.60;4.05;;;;;;;21.32;35.67;98900.88;4724295;30;20052;-83
2022/04/26 12:37:26;;;;;;;7.05;5.25;;;;;;;21.32;35.46;98898.22;4732051;30;20123;-80
2022/04/26 12:40:17;;;;;;;12.13;5.50;;;;;;;21.28;35.29;98888.78;4731674;30;20040;-80
2022/04/26 12:42:52;;;;;;;9.20;6.13;;;;;;;21.14;35.71;98887.06;4731727;30;20051;-79
2022/04/26 12:45:31;;;;;;;14.05;6.50;;;;;;;20.41;35.16;98771.09;4726578;30;20053;-79
2022/04/26 12:51:21;;;;;;;10.20;4.55;;;;;;;20.47;35.84;98889.59;4728613;30;20523;-79
2022/04/26 12:53:55;;;;;;;8.35;4.75;;;;;;;20.52;36.98;98920.16;4716566;30;20179;-80
2022/04/26 12:56:25;;;;;;;9.13;4.30;;;;;;;20.37;37.17;98912.28;4745199;30;20048;-80
2022/04/26 12:58:51;;;;;;;8.60;4.18;;;;;;;19.98;37.13;98882.13;4720187;30;20418;-77
2022/04/26 13:01:18;;;;;;;11.73;4.15;;;;;;;20.23;37.32;98921.06;4712525;30;20056;-77
2022/04/26 13:03:46;;;;;;;7.40;4.80;;;;;;;20.40;37.39;98914.72;4705122;30;20056;-80
2022/04/26 13:06:15;;;;;;;12.07;5.32;;;;;;;20.58;37.15;98909.19;4708547;30;20048;-81
2022/04/26 13:08:43;;;;;;;9.38;6.03;;;;;;;20.79;36.94;98914.06;4728761;30;20044;-78
2022/04/26 13:11:09;;;;;;;7.43;3.95;;;;;;;20.94;36.71;98909.56;4711124;30;20734;-79
2022/04/26 13:13:42;;;;;;;11.88;4.63;;;;;;;20.86;36.36;98905.63;4728331;30;20049;-79
2022/04/26 13:16:08;;;;;;;12.70;5.88;;;;;;;20.76;36.86;98902.75;4727609;30;20078;-78
2022/04/26 13:18:34;;;;;;;9.07;4.60;;;;;;;20.43;36.64;98874.03;4727913;30;20049;-78
2022/04/26 13:21:01;;;;;;;9.77;4.80;;;;;;;20.67;36.78;98894.53;4708978;30;20073;-76
2022/04/26 13:23:30;;;;;;;11.02;4.40;;;;;;;20.79;36.78;98914.06;4733595;30;20075;-78
2022/04/26 13:25:59;;;;;;;8.57;4.15;;;;;;;20.89;36.73;98905.44;4727939;30;20049;-80
2022/04/26 13:28:29;;;;;;;12.68;9.15;;;;;;;20.84;36.84;98901.41;4713357;30;20098;-79
2022/04/26 13:30:55;;;;;;;25.55;16.38;;;;;;;20.66;36.92;98906.88;4701558;30;20128;-78
2022/04/26 13:33:21;;;;;;;16.58;9.25;;;;;;;20.51;37.08;98906.13;4706049;30;20095;-77
2022/04/26 13:35:47;;;;;;;9.95;4.40;;;;;;;20.31;37.05;98910.84;4718143;30;20044;-79
2022/04/26 13:38:15;;;;;;;17.58;13.77;;;;;;;20.19;37.07;98916.09;4704357;30;20044;-80
2022/04/26 13:40:43;;;;;;;9.40;5.32;;;;;;;19.86;37.38;98895.13;4712775;30;20135;-79
2022/04/26 13:43:10;;;;;;;13.40;6.20;;;;;;;19.82;37.64;98900.72;4712887;30;20139;-80
2022/04/26 13:45:39;;;;;;;5.00;3.47;;;;;;;19.69;37.56;98908.53;4717697;30;20110;-80
2022/04/26 13:48:11;;;;;;;6.90;4.57;;;;;;;19.49;37.82;98901.81;4720918;30;20054;-77
2022/04/26 13:50:37;;;;;;;7.28;3.55;;;;;;;19.38;37.91;98911.22;4731110;30;20068;-79
2022/04/26 13:53:08;;;;;;;7.20;3.60;;;;;;;19.40;37.90;98908.47;4733908;30;20060;-79
2022/04/26 13:55:34;;;;;;;10.82;3.95;;;;;;;19.32;37.67;98892.25;4719774;30;20521;-80
2022/04/26 13:58:03;;;;;;;7.88;5.63;;;;;;;19.48;38.07;98902.75;4720484;30;20522;-78
2022/04/26 14:00:30;;;;;;;14.30;5.72;;;;;;;19.63;38.03;98911.53;4719319;30;20173;-80
2022/04/26 14:02:56;;;;;;;8.68;6.28;;;;;;;19.70;37.91;98881.19;4713780;30;20186;-78
2022/04/26 14:05:24;;;;;;;7.63;4.68;;;;;;;19.94;37.60;98893.84;4719041;30;20518;-79
2022/04/26 14:07:51;;;;;;;29.80;20.88;;;;;;;20.05;37.25;98896.66;4719160;30;20075;-77
2022/04/26 14:10:17;;;;;;;14.10;9.07;;;;;;;20.01;37.31;98868.75;4717004;30;20061;-78
2022/04/26 14:12:43;;;;;;;15.38;9.27;;;;;;;20.22;37.18;98895.59;4727051;30;20048;-79
2022/04/26 14:23:28;;;;;;;13.70;10.63;;;;;;;20.17;37.05;98909.09;4733079;30;20044;-79
2022/04/26 14:25:54;;;;;;;19.58;9.82;;;;;;;20.11;36.86;98904.19;4733507;30;20138;-77
2022/04/26 14:28:26;;;;;;;17.55;12.32;;;;;;;19.97;36.82;98891.03;4705655;30;20514;-79
2022/04/26 14:30:52;;;;;;;10.23;4.85;;;;;;;20.01;36.94;98903.06;4706083;30;20056;-80
2022/04/26 14:33:19;;;;;;;12.98;8.85;;;;;;;20.02;37.15;98917.97;4708738;30;20544;-82
2022/04/26 14:35:45;;;;;;;10.30;4.97;;;;;;;19.96;36.89;98915.72;4734268;30;20053;-80
2022/04/26 14:38:11;;;;;;;7.38;4.50;;;;;;;19.91;37.11;98918.63;4724746;30;20071;-80
2022/04/26 14:40:45;;;;;;;8.38;5.28;;;;;;;19.44;37.12;98853.75;4760243;30;20058;-81
2022/04/26 14:43:14;;;;;;;6.60;5.07;;;;;;;19.08;37.00;98798.72;4772227;24;20056;-81
2022/04/26 14:45:44;;;;;;;7.18;4.57;;;;;;;19.70;36.90;98891.75;4766132;30;20115;-81
2022/04/26 14:48:16;;;;;;;4.80;3.70;;;;;;;19.59;36.90;98881.84;4760227;30;20039;-81
2022/04/26 14:50:43;;;;;;;4.75;3.67;;;;;;;19.24;36.73;98843.47;4778631;30;20116;-79
2022/04/26 14:53:24;;;;;;;5.82;3.20;;;;;;;19.34;37.09;98893.88;4759525;30;20090;-78
2022/04/26 14:55:54;;;;;;;5.32;3.70;;;;;;;19.25;36.82;98915.50;4759746;30;20105;-78
2022/04/26 14:58:22;;;;;;;8.18;6.10;;;;;;;18.60;37.04;98840.16;4748346;30;20047;-80
2022/04/26 15:00:54;;;;;;;6.80;5.15;;;;;;;18.94;37.16;98918.13;4755816;30;20064;-78
2022/04/26 15:03:20;;;;;;;7.10;3.90;;;;;;;18.71;37.22;98921.22;4760295;30;20040;-78
2022/04/26 15:05:51;;;;;;;5.72;4.38;;;;;;;18.32;37.35;98874.16;4760701;30;20058;-81
2022/04/26 15:18:00;;;;;;;17.88;11.98;;;;;;;17.24;37.51;98756.31;4722607;30;20061;-79
2022/04/26 15:20:42;;;;;;;27.52;17.73;;;;;;;17.16;37.90;98733.91;4727390;30;20061;-79
2022/04/26 15:23:37;;;;;;;;;;;;;;;18.28;37.79;98920.03;4740783;30;20074;-80
2022/04/26 15:26:08;;;;;;;19.23;11.82;;;;;;;17.64;37.91;98861.19;4713884;30;19922;-79
2022/04/26 15:28:35;;;;;;;6.38;4.95;;;;;;;17.76;38.06;98865.78;4724872;30;20040;-80
2022/04/26 15:31:05;;;;;;;13.02;8.90;;;;;;;17.69;38.08;98870.53;4714150;30;20052;-80
2022/04/26 15:33:31;;;;;;;14.85;6.82;;;;;;;18.01;38.09;98930.28;4726575;30;20049;-81
2022/04/26 15:35:58;;;;;;;16.30;10.00;;;;;;;18.08;38.14;98933.44;4714222;30;20595;-78
2022/04/26 15:38:27;;;;;;;53.97;37.85;;;;;;;17.94;38.23;98919.22;4711720;30;20102;-78
2022/04/26 15:40:55;;;;;;;8.63;3.63;;;;;;;17.98;38.33;98941.84;4725943;30;20103;-78
2022/04/26 15:43:21;;;;;;;5.40;2.90;;;;;;;17.80;38.38;98929.59;4725330;30;20055;-80
2022/04/26 15:45:48;;;;;;;35.22;20.30;;;;;;;17.61;38.42;98920.91;4712566;30;20131;-83
2022/04/26 15:48:14;;;;;;;14.73;8.85;;;;;;;17.76;38.56;98945.53;4739337;30;20079;-81
2022/04/26 15:50:41;;;;;;;20.90;13.40;;;;;;;17.69;38.58;98944.19;4755335;30;20043;-80
2022/04/26 15:53:13;;;;;;;14.40;6.78;;;;;;;17.56;38.59;98930.81;4750376;30;20162;-79
2022/04/26 15:55:46;;;;;;;6.75;2.95;;;;;;;17.22;38.88;98885.19;4777195;30;20055;-79
2022/04/26 15:59:04;;;;;;;12.18;6.88;;;;;;;17.51;38.88;98961.75;4746418;30;20056;-81